createdAt,value
2022-07-29T00:00:24.344Z,29.79
2022-07-29T00:02:52.349Z,29.72
2022-07-29T00:05:24.075Z,29.95
2022-07-29T00:07:51.905Z,30.32
2022-07-29T00:10:19.826Z,30.28
2022-07-29T00:12:47.681Z,29.50
2022-07-29T00:15:15.948Z,30.22
2022-07-29T00:17:43.763Z,29.70
2022-07-29T00:20:12.117Z,29.21
2022-07-29T00:22:41.683Z,28.71
2022-07-29T00:25:10.021Z,28.63
2022-07-29T00:27:38.560Z,29.27
2022-07-29T00:30:07.669Z,29.59
2022-07-29T00:32:36.667Z,30.35
2022-07-29T00:35:22.604Z,29.79
2022-07-29T00:37:54.095Z,31.27
2022-07-29T00:40:23.475Z,29.25
2022-07-29T00:42:52.763Z,29.46
2022-07-29T00:45:22.889Z,28.72
2022-07-29T00:47:51.236Z,30.13
2022-07-29T00:50:19.176Z,29.73
2022-07-29T00:52:47.065Z,28.27
2022-07-29T00:55:17.864Z,29.34
2022-07-29T00:57:46.844Z,28.04
2022-07-29T01:00:18.256Z,28.83
2022-07-29T01:02:46.488Z,29.44
2022-07-29T01:05:14.827Z,30.25
2022-07-29T01:07:43.596Z,28.25
2022-07-29T01:10:12.474Z,28.39
2022-07-29T01:12:42.263Z,29.10
2022-07-29T01:15:10.842Z,28.42
2022-07-29T01:17:52.789Z,28.65
2022-07-29T01:20:31.516Z,28.75
2022-07-29T01:23:13.908Z,28.54
2022-07-29T01:25:57.031Z,28.17
2022-07-29T01:28:54.996Z,27.98
2022-07-29T01:31:29.050Z,28.31
2022-07-29T01:34:02.196Z,28.18
2022-07-29T01:36:33.508Z,27.53
2022-07-29T01:39:06.449Z,28.91
2022-07-29T01:41:36.005Z,28.31
2022-07-29T01:44:12.961Z,27.79
2022-07-29T01:46:45.252Z,28.40
2022-07-29T01:49:17.368Z,27.44
2022-07-29T01:51:49.713Z,28.03
2022-07-29T01:54:28.619Z,27.59
2022-07-29T01:56:58.371Z,28.82
2022-07-29T01:59:28.571Z,26.84
2022-07-29T02:01:57.468Z,27.54
2022-07-29T02:04:29.116Z,27.58
2022-07-29T02:07:01.106Z,28.37
2022-07-29T02:09:29.364Z,28.23
2022-07-29T02:11:58.272Z,28.98
2022-07-29T02:14:31.323Z,27.85
2022-07-29T02:17:00.758Z,28.51
2022-07-29T02:19:29.675Z,29.46
2022-07-29T02:21:58.430Z,29.77
2022-07-29T02:24:26.973Z,29.29
2022-07-29T02:26:56.295Z,29.10
2022-07-29T02:29:27.343Z,29.68
2022-07-29T02:31:55.762Z,29.57
2022-07-29T02:34:24.071Z,29.64
2022-07-29T02:36:52.196Z,29.43
2022-07-29T02:39:20.589Z,28.86
2022-07-29T02:41:50.708Z,29.69
2022-07-29T02:44:21.085Z,29.08
2022-07-29T02:46:54.281Z,29.66
2022-07-29T02:49:32.914Z,28.49
2022-07-29T02:52:03.404Z,28.43
2022-07-29T02:54:34.566Z,29.18
2022-07-29T02:57:06.034Z,28.75
2022-07-29T02:59:35.017Z,28.74
2022-07-29T03:02:04.850Z,28.46
2022-07-29T03:04:33.276Z,27.66
2022-07-29T03:07:03.365Z,27.31
2022-07-29T03:09:31.992Z,29.30
2022-07-29T03:12:00.013Z,27.83
2022-07-29T03:14:29.800Z,28.25
2022-07-29T03:16:57.690Z,27.56
2022-07-29T03:19:27.167Z,29.35
2022-07-29T03:21:55.259Z,27.74
2022-07-29T03:24:30.634Z,28.66
2022-07-29T03:26:59.024Z,28.85
2022-07-29T03:29:33.142Z,27.63
2022-07-29T03:32:03.535Z,28.05
2022-07-29T03:34:33.619Z,29.76
2022-07-29T03:37:01.937Z,28.65
2022-07-29T03:39:32.689Z,29.42
2022-07-29T03:42:02.468Z,29.32
2022-07-29T03:44:30.935Z,29.37
2022-07-29T03:47:00.166Z,29.19
2022-07-29T03:49:29.177Z,28.63
2022-07-29T03:51:58.479Z,28.32
2022-07-29T03:54:26.449Z,28.97
2022-07-29T03:56:54.961Z,29.50
2022-07-29T03:59:23.528Z,29.76
2022-07-29T04:01:52.315Z,29.61
2022-07-29T04:04:20.423Z,28.79
2022-07-29T04:06:48.629Z,28.77
2022-07-29T04:09:17.857Z,28.79
2022-07-29T04:11:59.128Z,29.17
2022-07-29T04:14:32.113Z,29.53
2022-07-29T04:16:59.967Z,29.46
2022-07-29T04:19:27.845Z,29.38
2022-07-29T04:21:55.743Z,28.48
2022-07-29T04:24:24.976Z,29.32
2022-07-29T04:26:53.167Z,28.22
2022-07-29T04:29:21.124Z,28.42
2022-07-29T04:31:49.186Z,28.58
2022-07-29T04:34:17.394Z,28.33
2022-07-29T04:36:45.507Z,28.54
2022-07-29T04:39:17.060Z,29.13
2022-07-29T04:41:48.633Z,29.95
2022-07-29T04:44:16.774Z,29.97
2022-07-29T04:46:45.637Z,28.87
2022-07-29T04:49:14.192Z,27.81
2022-07-29T04:51:42.211Z,29.57
2022-07-29T04:54:10.034Z,29.23
2022-07-29T04:56:37.944Z,29.93
2022-07-29T04:59:07.202Z,28.67
2022-07-29T05:01:35.173Z,29.29
2022-07-29T05:04:04.232Z,29.65
2022-07-29T05:06:32.252Z,29.97
2022-07-29T05:09:00.069Z,30.96
2022-07-29T05:11:30.553Z,31.15
2022-07-29T05:13:58.615Z,30.99
2022-07-29T05:16:28.272Z,31.98
2022-07-29T05:18:56.106Z,31.85
2022-07-29T05:21:24.050Z,31.29
2022-07-29T05:23:51.905Z,30.99
2022-07-29T05:26:19.901Z,30.23
2022-07-29T05:28:47.762Z,29.11
2022-07-29T05:31:15.903Z,30.04
2022-07-29T05:33:45.353Z,30.77
2022-07-29T05:36:13.252Z,30.24
2022-07-29T05:38:41.224Z,30.08
2022-07-29T05:41:09.123Z,28.93
2022-07-29T05:43:37.001Z,30.33
2022-07-29T05:46:07.963Z,31.43
2022-07-29T05:48:36.861Z,29.50
2022-07-29T05:51:09.174Z,31.74
2022-07-29T05:53:37.046Z,32.38
2022-07-29T05:56:08.567Z,31.53
2022-07-29T05:58:37.199Z,29.78
2022-07-29T06:01:08.205Z,31.46
2022-07-29T06:03:38.733Z,32.22
2022-07-29T06:06:08.213Z,31.29
2022-07-29T06:08:37.510Z,31.45
2022-07-29T06:11:09.309Z,31.37
2022-07-29T06:13:39.568Z,32.57
2022-07-29T06:16:07.623Z,30.25
2022-07-29T06:18:36.090Z,32.11
2022-07-29T06:21:06.153Z,33.20
2022-07-29T06:23:33.952Z,33.10
2022-07-29T06:26:08.467Z,31.66
2022-07-29T06:28:36.562Z,29.36
2022-07-29T06:31:06.997Z,31.04
2022-07-29T06:33:38.313Z,33.66
2022-07-29T06:36:10.044Z,32.45
2022-07-29T06:38:42.044Z,31.90
2022-07-29T06:41:13.523Z,33.27
2022-07-29T06:43:52.342Z,34.42
2022-07-29T06:46:23.928Z,33.48
2022-07-29T06:48:53.227Z,33.40
2022-07-29T06:51:23.096Z,33.55
2022-07-29T06:53:59.869Z,33.15
2022-07-29T06:56:32.395Z,33.40
2022-07-29T06:59:06.822Z,33.41
2022-07-29T07:01:34.710Z,34.10
2022-07-29T07:04:02.626Z,34.59
2022-07-29T07:06:30.488Z,34.79
2022-07-29T07:08:58.324Z,35.22
2022-07-29T07:11:26.232Z,33.89
2022-07-29T07:13:59.309Z,32.63
2022-07-29T07:16:30.364Z,35.11
2022-07-29T07:18:58.242Z,33.15
2022-07-29T07:21:26.218Z,34.75
2022-07-29T07:23:58.267Z,32.66
2022-07-29T07:26:26.098Z,33.32
2022-07-29T07:28:55.512Z,35.25
2022-07-29T07:31:23.493Z,35.85
2022-07-29T07:33:52.688Z,34.29
2022-07-29T07:36:20.602Z,35.33
2022-07-29T07:38:48.481Z,36.63
2022-07-29T07:41:16.378Z,36.53
2022-07-29T07:43:44.236Z,38.22
2022-07-29T07:46:13.905Z,36.71
2022-07-29T07:48:41.856Z,35.47
2022-07-29T07:51:09.725Z,37.76
2022-07-29T07:53:37.735Z,37.15
2022-07-29T07:56:11.508Z,36.82
2022-07-29T07:58:40.516Z,35.27
2022-07-29T08:01:08.733Z,37.14
2022-07-29T08:03:38.591Z,35.72
2022-07-29T08:06:06.969Z,38.24
2022-07-29T08:08:34.836Z,37.24
2022-07-29T08:11:09.478Z,36.48
2022-07-29T08:13:38.586Z,36.35
2022-07-29T08:16:13.857Z,36.62
2022-07-29T08:18:44.801Z,35.02
2022-07-29T08:21:14.763Z,38.19
2022-07-29T08:23:54.362Z,37.79
2022-07-29T08:26:26.770Z,37.38
2022-07-29T08:28:54.882Z,37.43
2022-07-29T08:31:22.932Z,35.00
2022-07-29T08:33:52.338Z,36.97
2022-07-29T08:36:22.030Z,38.36
2022-07-29T08:38:50.635Z,36.23
2022-07-29T08:41:20.002Z,36.62
2022-07-29T08:43:48.426Z,37.21
2022-07-29T08:46:16.414Z,37.18
2022-07-29T08:48:44.529Z,38.76
2022-07-29T08:51:17.002Z,36.90
2022-07-29T08:53:45.777Z,35.13
2022-07-29T08:56:15.145Z,37.47
2022-07-29T08:58:43.289Z,38.80
2022-07-29T09:01:18.481Z,38.28
2022-07-29T09:03:48.419Z,35.76
2022-07-29T09:06:20.256Z,36.22
2022-07-29T09:08:48.249Z,38.23
2022-07-29T09:11:16.499Z,39.04
2022-07-29T09:13:44.328Z,38.42
2022-07-29T09:16:12.194Z,38.04
2022-07-29T09:18:42.073Z,39.90
2022-07-29T09:21:30.024Z,37.12
2022-07-29T09:24:09.170Z,38.24
2022-07-29T09:26:38.391Z,37.56
2022-07-29T09:29:15.935Z,39.77
2022-07-29T09:31:45.866Z,39.43
2022-07-29T09:34:14.829Z,40.79
2022-07-29T09:36:43.398Z,40.01
2022-07-29T09:39:12.828Z,38.47
2022-07-29T09:41:48.760Z,39.35
2022-07-29T09:44:17.057Z,39.56
2022-07-29T09:46:58.972Z,37.40
2022-07-29T09:49:27.694Z,37.68
2022-07-29T09:52:03.455Z,38.45
2022-07-29T09:54:37.585Z,40.47
2022-07-29T09:57:06.465Z,39.15
2022-07-29T09:59:34.792Z,40.31
2022-07-29T10:02:03.029Z,40.32
2022-07-29T10:04:42.039Z,40.52
2022-07-29T10:07:10.562Z,40.91
2022-07-29T10:09:39.772Z,39.44
2022-07-29T10:12:10.087Z,37.99
2022-07-29T10:14:38.489Z,40.76
2022-07-29T10:17:07.703Z,39.20
2022-07-29T10:19:36.561Z,39.72
2022-07-29T10:22:06.270Z,39.55
2022-07-29T10:24:34.755Z,39.79
2022-07-29T10:27:05.285Z,41.00
2022-07-29T10:29:33.351Z,41.66
2022-07-29T10:32:21.282Z,40.48
2022-07-29T10:35:02.598Z,41.98
2022-07-29T10:37:35.933Z,43.47
2022-07-29T10:40:25.431Z,41.21
2022-07-29T10:42:57.809Z,40.30
2022-07-29T10:45:26.045Z,39.77
2022-07-29T10:48:07.937Z,41.91
2022-07-29T10:50:57.751Z,40.84
2022-07-29T10:53:25.935Z,40.30
2022-07-29T10:56:01.631Z,41.14
2022-07-29T10:58:35.657Z,42.98
2022-07-29T11:01:37.239Z,41.20
2022-07-29T11:07:11.023Z,39.26
2022-07-29T11:09:40.035Z,42.42
2022-07-29T11:12:48.257Z,41.98
2022-07-29T11:15:19.995Z,41.01
2022-07-29T11:18:15.256Z,41.05
2022-07-29T11:20:47.771Z,40.38
2022-07-29T11:23:24.437Z,40.89
2022-07-29T11:26:23.298Z,42.30
2022-07-29T11:28:59.523Z,38.32
2022-07-29T11:31:39.989Z,39.75
2022-07-29T11:34:28.238Z,41.86
2022-07-29T11:37:30.878Z,42.52
2022-07-29T11:40:21.305Z,42.69
2022-07-29T11:42:51.895Z,41.52
2022-07-29T11:45:41.640Z,41.36
2022-07-29T11:48:31.363Z,42.36
2022-07-29T11:51:03.907Z,42.71
2022-07-29T11:53:35.768Z,44.61
2022-07-29T11:56:06.155Z,43.35
2022-07-29T11:58:34.506Z,44.65
2022-07-29T12:01:06.161Z,42.32
2022-07-29T12:06:23.696Z,45.37
2022-07-29T12:08:51.574Z,44.84
2022-07-29T12:11:21.555Z,42.23
2022-07-29T12:13:50.242Z,43.92
2022-07-29T12:16:27.922Z,44.71
2022-07-29T12:18:59.948Z,45.25
2022-07-29T12:21:29.117Z,45.22
2022-07-29T12:24:04.837Z,42.88
2022-07-29T12:26:36.608Z,46.40
2022-07-29T12:29:07.326Z,41.34
2022-07-29T12:31:43.516Z,46.08
2022-07-29T12:34:14.419Z,47.29
2022-07-29T12:36:43.118Z,45.01
2022-07-29T12:39:11.130Z,43.76
2022-07-29T12:41:39.636Z,42.56
2022-07-29T12:44:07.385Z,42.16
2022-07-29T12:46:35.428Z,41.39
2022-07-29T12:49:04.077Z,42.27
2022-07-29T12:51:35.192Z,42.83
2022-07-29T12:54:06.561Z,41.25
2022-07-29T12:56:43.632Z,41.33
2022-07-29T12:59:17.811Z,43.92
2022-07-29T13:01:45.846Z,42.47
2022-07-29T13:04:26.165Z,45.06
2022-07-29T13:07:04.793Z,45.38
2022-07-29T13:09:40.270Z,43.48
2022-07-29T13:12:09.429Z,43.19
2022-07-29T13:14:38.878Z,45.56
2022-07-29T13:17:08.442Z,44.89
2022-07-29T13:19:38.273Z,43.77
2022-07-29T13:22:07.579Z,42.28
2022-07-29T13:24:35.803Z,42.66
2022-07-29T13:27:05.524Z,43.02
2022-07-29T13:29:34.142Z,43.92
2022-07-29T13:32:02.050Z,45.07
2022-07-29T13:34:29.911Z,48.24
2022-07-29T13:36:57.699Z,44.22
2022-07-29T13:39:26.918Z,44.49
2022-07-29T13:41:55.203Z,46.22
2022-07-29T13:44:24.299Z,47.31
2022-07-29T13:46:52.151Z,43.94
2022-07-29T13:49:20.168Z,47.07
2022-07-29T13:51:48.003Z,47.75
2022-07-29T13:54:15.836Z,45.71
2022-07-29T13:56:45.039Z,47.17
2022-07-29T13:59:16.412Z,43.96
2022-07-29T14:01:44.400Z,45.67
2022-07-29T14:04:13.713Z,44.69
2022-07-29T14:06:41.713Z,42.37
2022-07-29T14:09:10.128Z,41.84
2022-07-29T14:11:39.347Z,42.24
2022-07-29T14:14:08.776Z,45.72
2022-07-29T14:16:42.028Z,46.16
2022-07-29T14:19:11.885Z,45.83
2022-07-29T14:21:39.954Z,41.63
2022-07-29T14:24:16.301Z,45.79
2022-07-29T14:26:46.286Z,44.63
2022-07-29T14:29:15.837Z,47.53
2022-07-29T14:31:44.853Z,45.09
2022-07-29T14:34:12.749Z,47.37
2022-07-29T14:36:40.563Z,47.91
2022-07-29T14:39:08.432Z,46.76
2022-07-29T14:41:36.302Z,43.96
2022-07-29T14:44:04.433Z,45.26
2022-07-29T14:46:33.614Z,43.36
2022-07-29T14:49:02.277Z,42.69
2022-07-29T14:51:32.404Z,41.84
2022-07-29T14:54:00.699Z,42.06
2022-07-29T14:56:46.828Z,42.32
2022-07-29T14:59:15.033Z,42.71
2022-07-29T15:01:44.772Z,43.98
2022-07-29T15:04:12.595Z,46.10
2022-07-29T15:06:40.485Z,47.84
2022-07-29T15:09:08.395Z,46.13
2022-07-29T15:11:37.039Z,47.72
2022-07-29T15:14:06.789Z,44.44
2022-07-29T15:16:34.953Z,47.74
2022-07-29T15:19:04.768Z,46.01
2022-07-29T15:21:32.708Z,44.20
2022-07-29T15:24:00.585Z,46.32
2022-07-29T15:26:28.736Z,48.58
2022-07-29T15:28:57.389Z,47.89
2022-07-29T15:31:25.383Z,44.01
2022-07-29T15:33:57.593Z,42.75
2022-07-29T15:36:51.088Z,42.38
2022-07-29T15:39:15.770Z,44.43
2022-07-29T15:41:43.692Z,44.73
2022-07-29T15:44:11.525Z,48.18
2022-07-29T15:46:57.335Z,45.87
2022-07-29T15:49:31.399Z,47.42
2022-07-29T15:52:26.190Z,45.39
2022-07-29T15:54:55.092Z,44.67
2022-07-29T15:57:23.346Z,44.76
2022-07-29T15:59:51.934Z,42.90
2022-07-29T16:02:19.985Z,44.84
2022-07-29T16:04:47.819Z,41.34
2022-07-29T16:07:15.708Z,42.36
2022-07-29T16:09:50.815Z,41.47
2022-07-29T16:12:20.639Z,41.81
2022-07-29T16:14:49.401Z,40.97
2022-07-29T16:17:17.498Z,41.65
2022-07-29T16:19:45.695Z,43.81
2022-07-29T16:22:13.832Z,40.44
2022-07-29T16:24:41.779Z,42.92
2022-07-29T16:27:11.030Z,42.60
2022-07-29T16:29:38.915Z,43.05
2022-07-29T16:32:07.505Z,40.93
2022-07-29T16:34:35.469Z,39.46
2022-07-29T16:37:03.882Z,41.31
2022-07-29T16:39:32.179Z,41.71
2022-07-29T16:42:02.309Z,42.54
2022-07-29T16:44:33.638Z,41.97
2022-07-29T16:47:02.642Z,42.47
2022-07-29T16:49:31.473Z,42.89
2022-07-29T16:51:59.343Z,42.26
2022-07-29T16:54:27.360Z,43.34
2022-07-29T16:56:55.727Z,41.73
2022-07-29T16:59:26.834Z,42.53
2022-07-29T17:01:56.220Z,42.64
2022-07-29T17:04:24.135Z,42.79
2022-07-29T17:06:52.497Z,41.73
2022-07-29T17:09:21.070Z,42.50
2022-07-29T17:11:54.832Z,43.32
2022-07-29T17:14:24.873Z,44.02
2022-07-29T17:17:00.514Z,42.58
2022-07-29T17:19:33.824Z,42.46
2022-07-29T17:22:10.537Z,43.56
2022-07-29T17:24:42.158Z,41.08
2022-07-29T17:27:10.364Z,43.83
2022-07-29T17:29:38.762Z,46.00
2022-07-29T17:32:08.995Z,43.20
2022-07-29T17:34:38.407Z,45.70
2022-07-29T17:37:06.511Z,44.28
2022-07-29T17:39:35.456Z,44.01
2022-07-29T17:42:03.511Z,43.31
2022-07-29T17:44:31.431Z,44.52
2022-07-29T17:47:01.546Z,45.29
2022-07-29T17:49:29.918Z,44.17
2022-07-29T17:52:01.077Z,43.56
2022-07-29T17:54:29.616Z,42.86
2022-07-29T17:56:57.705Z,43.74
2022-07-29T17:59:25.807Z,44.17
2022-07-29T18:01:54.163Z,43.46
2022-07-29T18:04:23.472Z,41.36
2022-07-29T18:06:51.692Z,41.35
2022-07-29T18:09:20.853Z,41.50
2022-07-29T18:11:48.885Z,42.34
2022-07-29T18:14:17.109Z,41.08
2022-07-29T18:16:45.057Z,41.07
2022-07-29T18:19:13.042Z,40.59
2022-07-29T18:21:51.272Z,40.23
2022-07-29T18:24:25.589Z,39.04
2022-07-29T18:26:53.665Z,39.86
2022-07-29T18:29:21.541Z,40.42
2022-07-29T18:31:49.618Z,39.08
2022-07-29T18:34:17.797Z,39.60
2022-07-29T18:36:46.064Z,40.05
2022-07-29T18:39:18.864Z,39.72
2022-07-29T18:41:51.634Z,39.98
2022-07-29T18:44:21.884Z,39.70
2022-07-29T18:46:51.585Z,39.36
2022-07-29T18:49:19.835Z,39.95
2022-07-29T18:51:48.465Z,38.90
2022-07-29T18:54:17.391Z,38.54
2022-07-29T18:56:45.453Z,37.88
2022-07-29T18:59:17.046Z,38.67
2022-07-29T19:01:45.203Z,39.00
2022-07-29T19:04:13.186Z,37.76
2022-07-29T19:06:41.471Z,36.54
2022-07-29T19:09:09.552Z,37.56
2022-07-29T19:11:37.666Z,36.21
2022-07-29T19:14:06.611Z,37.86
2022-07-29T19:16:36.029Z,37.97
2022-07-29T19:19:05.626Z,37.36
2022-07-29T19:21:33.463Z,36.43
2022-07-29T19:24:07.387Z,36.23
2022-07-29T19:26:39.241Z,37.27
2022-07-29T19:29:07.202Z,37.59
2022-07-29T19:31:36.506Z,37.89
2022-07-29T19:34:05.645Z,36.15
2022-07-29T19:36:33.580Z,37.08
2022-07-29T19:39:01.995Z,35.84
2022-07-29T19:41:29.947Z,36.31
2022-07-29T19:43:58.187Z,36.88
2022-07-29T19:46:28.824Z,36.63
2022-07-29T19:48:58.187Z,36.95
2022-07-29T19:51:26.990Z,35.19
2022-07-29T19:53:54.804Z,36.16
2022-07-29T19:56:25.267Z,33.06
2022-07-29T19:58:53.151Z,35.69
2022-07-29T20:01:21.538Z,34.98
2022-07-29T20:03:49.533Z,34.02
2022-07-29T20:06:18.921Z,32.77
2022-07-29T20:08:46.985Z,34.45
2022-07-29T20:11:14.911Z,34.14
2022-07-29T20:13:42.877Z,33.74
2022-07-29T20:16:10.827Z,34.73
2022-07-29T20:18:38.793Z,33.40
2022-07-29T20:21:06.783Z,33.68
2022-07-29T20:23:35.987Z,33.94
2022-07-29T20:26:09.232Z,34.85
2022-07-29T20:28:40.095Z,33.86
2022-07-29T20:31:08.788Z,33.95
2022-07-29T20:33:36.747Z,33.53
2022-07-29T20:36:07.655Z,35.00
2022-07-29T20:38:36.914Z,34.11
2022-07-29T20:41:08.173Z,33.90
2022-07-29T20:43:39.161Z,34.17
2022-07-29T20:46:07.281Z,32.63
2022-07-29T20:48:35.238Z,32.98
2022-07-29T20:51:06.790Z,34.23
2022-07-29T20:53:36.134Z,32.97
2022-07-29T20:56:07.813Z,33.71
2022-07-29T20:58:36.502Z,32.54
2022-07-29T21:01:08.013Z,32.69
2022-07-29T21:03:35.956Z,33.58
2022-07-29T21:06:09.625Z,34.24
2022-07-29T21:08:39.128Z,33.72
2022-07-29T21:11:06.921Z,32.64
2022-07-29T21:13:38.389Z,33.36
2022-07-29T21:16:14.883Z,33.44
2022-07-29T21:18:46.006Z,34.33
2022-07-29T21:21:15.218Z,33.42
2022-07-29T21:23:45.921Z,31.71
2022-07-29T21:26:13.821Z,33.04
2022-07-29T21:28:40.929Z,33.05
2022-07-29T21:31:10.431Z,33.54
2022-07-29T21:33:38.567Z,33.99
2022-07-29T21:36:42.380Z,33.32
2022-07-29T21:38:57.278Z,33.45
2022-07-29T21:41:25.518Z,33.76
2022-07-29T21:43:54.570Z,32.62
2022-07-29T21:46:26.114Z,32.02
2022-07-29T21:48:54.005Z,31.95
2022-07-29T21:51:21.887Z,31.85
2022-07-29T21:53:50.551Z,32.01
2022-07-29T21:56:23.616Z,32.31
2022-07-29T21:58:55.521Z,33.39
2022-07-29T22:01:23.799Z,32.82
2022-07-29T22:03:51.872Z,32.50
2022-07-29T22:06:19.776Z,31.17
2022-07-29T22:08:48.079Z,32.69
2022-07-29T22:11:16.146Z,31.99
2022-07-29T22:13:45.367Z,32.08
2022-07-29T22:16:14.975Z,33.18
2022-07-29T22:18:45.023Z,31.99
2022-07-29T22:21:12.947Z,32.37
2022-07-29T22:23:40.805Z,33.20
2022-07-29T22:26:08.640Z,33.37
2022-07-29T22:28:36.559Z,33.11
2022-07-29T22:31:08.987Z,32.59
2022-07-29T22:33:37.153Z,33.02
2022-07-29T22:36:08.371Z,32.49
2022-07-29T22:38:36.225Z,33.33
2022-07-29T22:41:06.242Z,32.57
2022-07-29T22:43:34.158Z,32.50
2022-07-29T22:46:06.222Z,32.10
2022-07-29T22:48:35.445Z,31.73
2022-07-29T22:51:06.077Z,32.44
2022-07-29T22:53:33.878Z,32.70
2022-07-29T22:56:04.396Z,32.19
2022-07-29T22:58:32.358Z,32.03
2022-07-29T23:01:00.277Z,33.00
2022-07-29T23:03:29.023Z,32.99
2022-07-29T23:05:58.252Z,32.73
2022-07-29T23:08:26.152Z,31.70
2022-07-29T23:10:53.992Z,32.50
2022-07-29T23:13:21.916Z,33.65
2022-07-29T23:15:49.805Z,33.07
2022-07-29T23:18:17.729Z,33.05
2022-07-29T23:20:45.722Z,32.83
2022-07-29T23:23:15.047Z,32.81
2022-07-29T23:25:42.927Z,32.58
2022-07-29T23:28:12.200Z,31.92
2022-07-29T23:30:41.391Z,32.58
2022-07-29T23:33:09.343Z,31.81
2022-07-29T23:35:37.319Z,32.73
2022-07-29T23:38:05.168Z,33.42
2022-07-29T23:40:34.417Z,32.90
2022-07-29T23:43:02.251Z,32.76
2022-07-29T23:45:44.556Z,32.42
2022-07-29T23:48:16.485Z,32.93
2022-07-29T23:50:44.370Z,32.86
2022-07-29T23:53:12.641Z,31.90
2022-07-29T23:55:41.896Z,32.13
2022-07-29T23:58:09.702Z,32.25
